Time;durP1;ratioP1;P1;durP2;ratioP2;P2;SDS_P1;SDS_P2;PMS_P1;PMS_P2;Temp;Humidity;BMP_temperature;BMP_pressure;BME280_temperature;BME280_humidity;BME280_pressure;Samples;Min_cycle;Max_cycle;Signal;HPM_P1;HPM_P2
2021/05/19 00:02:06;;;;;;;2.50;2.30;;;14.60;99.90;;;;;;5050643;28;20654;-72
2021/05/19 00:04:33;;;;;;;2.28;2.08;;;14.50;99.90;;;;;;5063284;28;20194;-74
2021/05/19 00:07:00;;;;;;;3.22;2.40;;;14.50;99.90;;;;;;5068380;28;20198;-73
2021/05/19 00:09:26;;;;;;;1.98;1.75;;;14.50;99.90;;;;;;5065401;28;20222;-72
2021/05/19 00:11:52;;;;;;;3.15;2.60;;;14.50;99.90;;;;;;5070917;28;20284;-72
2021/05/19 00:14:20;;;;;;;3.33;3.10;;;14.50;99.90;;;;;;5070971;28;20201;-73
2021/05/19 00:16:47;;;;;;;3.38;2.78;;;14.50;99.90;;;;;;5072541;28;20926;-73
2021/05/19 00:19:14;;;;;;;2.65;2.45;;;14.50;99.90;;;;;;5074521;28;20229;-73
2021/05/19 00:21:41;;;;;;;2.95;2.75;;;14.40;99.90;;;;;;5073257;28;20307;-73
2021/05/19 00:24:09;;;;;;;2.40;2.17;;;14.40;99.90;;;;;;5074614;28;20197;-73
2021/05/19 00:26:35;;;;;;;2.60;1.85;;;14.40;99.90;;;;;;5074147;28;20182;-73
2021/05/19 00:29:03;;;;;;;2.67;2.47;;;14.40;99.90;;;;;;5074216;28;20201;-72
2021/05/19 00:31:31;;;;;;;2.53;2.10;;;14.30;99.90;;;;;;5064144;28;20203;-72
2021/05/19 00:33:57;;;;;;;1.92;1.80;;;14.40;99.90;;;;;;5066173;28;20194;-73
2021/05/19 00:36:23;;;;;;;3.55;3.00;;;14.30;99.90;;;;;;5072954;28;20263;-73
2021/05/19 00:38:50;;;;;;;3.08;2.60;;;14.30;99.90;;;;;;5074430;28;20190;-73
2021/05/19 00:41:16;;;;;;;3.38;2.70;;;14.30;99.90;;;;;;5072795;28;20210;-72
2021/05/19 00:43:43;;;;;;;3.10;2.58;;;14.30;99.90;;;;;;5072868;28;20198;-72
2021/05/19 00:46:09;;;;;;;2.65;2.40;;;14.30;99.90;;;;;;5073814;28;20285;-72
2021/05/19 00:48:36;;;;;;;4.65;2.67;;;14.30;99.90;;;;;;5073666;28;20271;-72
2021/05/19 00:51:04;;;;;;;3.67;2.20;;;14.30;99.90;;;;;;5072862;28;20214;-72
2021/05/19 00:53:30;;;;;;;4.88;2.55;;;14.20;99.90;;;;;;5074321;28;20202;-72
2021/05/19 00:55:57;;;;;;;2.53;2.30;;;14.20;99.90;;;;;;5074021;28;20201;-72
2021/05/19 00:58:24;;;;;;;3.13;2.88;;;14.20;99.90;;;;;;5073993;28;20201;-72
2021/05/19 01:00:50;;;;;;;3.65;3.35;;;14.20;99.90;;;;;;5072948;28;20604;-72
2021/05/19 01:03:16;;;;;;;2.85;2.65;;;14.10;99.90;;;;;;5063602;28;20237;-72
2021/05/19 01:05:46;;;;;;;3.17;2.88;;;14.10;99.90;;;;;;5064273;28;20209;-72
2021/05/19 01:11:05;;;;;;;3.10;2.45;;;14.10;99.90;;;;;;5071380;28;20240;-73
2021/05/19 01:13:32;;;;;;;2.88;2.67;;;14.10;99.90;;;;;;5054026;28;20198;-73
2021/05/19 01:16:00;;;;;;;3.05;2.75;;;14.10;99.90;;;;;;5053823;28;20252;-73
2021/05/19 01:18:27;;;;;;;4.13;2.45;;;14.10;99.90;;;;;;5057817;28;20213;-73
2021/05/19 01:20:55;;;;;;;4.53;2.95;;;14.00;99.90;;;;;;5073794;28;20574;-73
2021/05/19 01:23:22;;;;;;;4.30;3.08;;;14.00;99.90;;;;;;5064298;28;20365;-73
2021/05/19 01:25:48;;;;;;;3.00;2.47;;;14.00;99.90;;;;;;5070854;28;20205;-72
2021/05/19 01:28:15;;;;;;;3.20;3.00;;;14.00;99.90;;;;;;5065199;28;20198;-72
2021/05/19 01:30:42;;;;;;;3.20;2.90;;;14.00;99.90;;;;;;5073302;28;20223;-72
2021/05/19 01:33:08;;;;;;;2.30;2.10;;;14.00;99.90;;;;;;5073406;28;20224;-72
2021/05/19 01:35:34;;;;;;;3.28;2.72;;;14.00;99.90;;;;;;5072163;28;20681;-72
2021/05/19 01:38:01;;;;;;;3.42;3.13;;;13.90;99.90;;;;;;5073231;28;20671;-72
2021/05/19 01:40:28;;;;;;;3.88;3.22;;;13.90;99.90;;;;;;5073652;28;20225;-72
2021/05/19 01:42:55;;;;;;;2.78;2.38;;;13.90;99.90;;;;;;5073158;28;20198;-72
2021/05/19 01:45:24;;;;;;;2.83;2.47;;;13.90;99.90;;;;;;5071609;28;20209;-72
2021/05/19 01:47:52;;;;;;;3.78;2.65;;;13.90;99.90;;;;;;5056336;28;20194;-72
2021/05/19 01:50:21;;;;;;;2.72;2.53;;;13.90;99.90;;;;;;5073469;28;20228;-72
2021/05/19 01:52:48;;;;;;;4.80;2.63;;;13.90;99.90;;;;;;5066582;28;20254;-72
2021/05/19 01:55:16;;;;;;;2.53;2.33;;;13.90;99.90;;;;;;5053321;28;20194;-72
2021/05/19 01:57:44;;;;;;;3.03;2.83;;;13.90;99.90;;;;;;5059559;28;20194;-73
2021/05/19 02:00:12;;;;;;;3.17;2.80;;;13.90;99.90;;;;;;5072575;28;20705;-72
2021/05/19 02:02:38;;;;;;;3.08;2.45;;;13.90;99.90;;;;;;5068120;28;20662;-72
2021/05/19 02:05:06;;;;;;;3.45;2.67;;;13.80;99.90;;;;;;5072504;28;20209;-72
2021/05/19 02:07:36;;;;;;;2.53;2.33;;;13.80;99.90;;;;;;5072880;28;20194;-72
2021/05/19 02:10:05;;;;;;;2.95;2.75;;;13.80;99.90;;;;;;5072800;28;20206;-72
2021/05/19 02:12:31;;;;;;;3.03;2.83;;;13.80;99.90;;;;;;5061408;28;20198;-71
2021/05/19 02:14:58;;;;;;;3.58;3.15;;;13.80;99.90;;;;;;5072899;28;20213;-71
2021/05/19 02:17:26;;;;;;;2.97;2.78;;;13.80;99.90;;;;;;5063824;28;20213;-71
2021/05/19 02:19:52;;;;;;;2.97;2.67;;;13.70;99.90;;;;;;5070796;28;20256;-73
2021/05/19 02:22:19;;;;;;;3.88;3.53;;;13.70;99.90;;;;;;5072279;28;20684;-73
2021/05/19 02:24:45;;;;;;;3.30;3.00;;;13.70;99.90;;;;;;5070729;28;20209;-72
2021/05/19 02:27:11;;;;;;;3.60;3.30;;;13.70;99.90;;;;;;5071725;28;20220;-72
2021/05/19 02:29:37;;;;;;;2.60;2.40;;;13.70;99.90;;;;;;5068181;28;20214;-73
2021/05/19 02:32:05;;;;;;;3.58;3.25;;;13.70;99.90;;;;;;5072197;28;20822;-72
2021/05/19 02:34:31;;;;;;;3.67;3.38;;;13.60;99.90;;;;;;5072541;28;20212;-72
2021/05/19 02:36:58;;;;;;;3.47;3.17;;;13.60;99.90;;;;;;5067718;28;20201;-72
2021/05/19 02:39:24;;;;;;;3.47;2.80;;;13.60;99.90;;;;;;5051495;28;20207;-72
2021/05/19 02:41:50;;;;;;;3.97;3.60;;;13.60;99.90;;;;;;5071419;28;20194;-72
2021/05/19 02:44:16;;;;;;;3.78;3.45;;;13.50;99.90;;;;;;5062190;28;20221;-72
2021/05/19 02:46:43;;;;;;;3.10;2.80;;;13.50;99.90;;;;;;5055895;28;20193;-72
2021/05/19 02:49:10;;;;;;;3.80;3.40;;;13.50;99.90;;;;;;5056563;28;20202;-72
2021/05/19 02:51:38;;;;;;;3.53;3.22;;;13.50;99.90;;;;;;5066330;28;20194;-73
2021/05/19 02:54:05;;;;;;;3.33;3.03;;;13.50;99.90;;;;;;5072220;28;20209;-72
2021/05/19 02:56:32;;;;;;;4.05;3.65;;;13.50;99.90;;;;;;5071882;28;20206;-72
2021/05/19 02:58:58;;;;;;;3.38;3.10;;;13.40;99.90;;;;;;5067530;28;20194;-72
2021/05/19 03:01:24;;;;;;;4.45;4.05;;;13.40;99.90;;;;;;5067418;28;20191;-72
2021/05/19 03:03:50;;;;;;;4.20;3.80;;;13.40;99.90;;;;;;5067781;28;20210;-72
2021/05/19 03:06:17;;;;;;;3.40;3.10;;;13.40;99.90;;;;;;5056180;28;20222;-72
2021/05/19 03:08:44;;;;;;;4.00;3.25;;;13.40;99.90;;;;;;5051984;28;20199;-74
2021/05/19 03:11:10;;;;;;;3.50;3.20;;;13.40;99.90;;;;;;5051625;28;20210;-72
2021/05/19 03:13:36;;;;;;;3.55;3.25;;;13.40;99.90;;;;;;5069816;28;20213;-72
2021/05/19 03:16:02;;;;;;;4.75;3.72;;;13.40;99.90;;;;;;5056711;28;20250;-72
2021/05/19 03:18:29;;;;;;;4.05;3.50;;;13.40;99.90;;;;;;5051634;28;20622;-72
2021/05/19 03:20:55;;;;;;;4.15;3.75;;;13.40;99.90;;;;;;5051812;28;20234;-72
2021/05/19 03:23:22;;;;;;;3.60;3.30;;;13.40;99.90;;;;;;5070211;28;20255;-72
2021/05/19 03:25:48;;;;;;;4.85;4.45;;;13.40;99.90;;;;;;5071446;28;20194;-71
2021/05/19 03:28:15;;;;;;;4.47;4.07;;;13.40;99.90;;;;;;5071523;28;20646;-72
2021/05/19 03:30:41;;;;;;;4.38;3.95;;;13.40;99.90;;;;;;5071590;28;20210;-73
2021/05/19 03:33:07;;;;;;;4.35;3.85;;;13.40;99.90;;;;;;5060954;28;20194;-73
2021/05/19 03:35:34;;;;;;;4.22;3.80;;;13.30;99.90;;;;;;5071117;28;20198;-73
2021/05/19 03:38:00;;;;;;;6.22;4.50;;;13.30;99.90;;;;;;5057900;28;20201;-73
2021/05/19 03:40:27;;;;;;;4.15;3.72;;;13.20;99.90;;;;;;5051356;28;20202;-72
2021/05/19 03:42:53;;;;;;;3.85;3.38;;;13.20;99.90;;;;;;5066089;28;20198;-72
2021/05/19 03:45:22;;;;;;;4.10;3.70;;;13.20;99.90;;;;;;5070890;28;20198;-72
2021/05/19 03:47:50;;;;;;;5.03;4.30;;;13.20;99.90;;;;;;5069315;28;20202;-73
2021/05/19 03:50:18;;;;;;;4.60;4.20;;;13.20;99.90;;;;;;5070297;28;20229;-73
2021/05/19 03:52:44;;;;;;;4.90;4.40;;;13.20;99.90;;;;;;5074614;28;20224;-72
2021/05/19 03:55:12;;;;;;;3.97;3.67;;;13.20;99.90;;;;;;5074189;28;20606;-73
2021/05/19 03:57:39;;;;;;;5.22;4.45;;;13.20;99.90;;;;;;5067728;28;20787;-73
2021/05/19 04:00:08;;;;;;;6.57;4.25;;;13.20;99.90;;;;;;5063623;28;20194;-72
2021/05/19 04:02:34;;;;;;;4.18;3.80;;;13.20;99.90;;;;;;5074127;28;20194;-73
2021/05/19 04:05:00;;;;;;;5.13;4.68;;;13.20;99.90;;;;;;5074145;28;20232;-72
2021/05/19 04:07:27;;;;;;;4.60;4.20;;;13.20;99.90;;;;;;5072313;28;20202;-73
2021/05/19 04:09:53;;;;;;;5.28;4.78;;;13.20;99.90;;;;;;5074370;28;20598;-73
2021/05/19 04:12:19;;;;;;;5.47;4.97;;;13.20;99.90;;;;;;5064760;28;20195;-73
2021/05/19 04:14:46;;;;;;;5.10;4.00;;;13.20;99.90;;;;;;5054110;28;20210;-73
2021/05/19 04:17:12;;;;;;;4.25;3.85;;;13.10;99.90;;;;;;5062351;28;20197;-74
2021/05/19 04:19:38;;;;;;;4.78;4.38;;;13.10;99.90;;;;;;5055783;28;20195;-73
2021/05/19 04:22:05;;;;;;;5.38;4.88;;;13.10;99.90;;;;;;5053826;28;20575;-73
2021/05/19 04:24:31;;;;;;;4.93;4.43;;;13.10;99.90;;;;;;5053865;28;20206;-73
2021/05/19 04:26:57;;;;;;;4.60;4.05;;;13.10;99.90;;;;;;5073189;28;20190;-72
2021/05/19 04:29:23;;;;;;;4.97;4.47;;;13.10;99.90;;;;;;5069714;28;20198;-73
2021/05/19 04:31:50;;;;;;;8.35;4.97;;;13.00;99.90;;;;;;5073575;28;20201;-73
2021/05/19 04:34:16;;;;;;;5.80;4.95;;;13.00;99.90;;;;;;5073477;28;20218;-72
2021/05/19 04:36:42;;;;;;;6.38;4.65;;;13.00;99.90;;;;;;5064397;28;20205;-73
2021/05/19 04:39:09;;;;;;;5.85;5.00;;;13.00;99.90;;;;;;5073389;28;20190;-73
2021/05/19 04:41:35;;;;;;;4.97;4.47;;;12.90;99.90;;;;;;5065552;28;20616;-73
2021/05/19 04:44:01;;;;;;;5.82;5.15;;;12.90;99.90;;;;;;5056025;28;20772;-72
2021/05/19 04:46:28;;;;;;;5.07;4.57;;;12.90;99.90;;;;;;5073211;28;20202;-72
2021/05/19 04:48:59;;;;;;;5.60;5.10;;;12.90;99.90;;;;;;5073236;28;20220;-73
2021/05/19 04:51:26;;;;;;;5.28;4.78;;;12.90;99.90;;;;;;5067878;28;20226;-72
2021/05/19 04:53:52;;;;;;;5.80;5.20;;;12.90;99.90;;;;;;5065853;28;20222;-72
2021/05/19 04:56:18;;;;;;;9.48;5.30;;;12.80;99.90;;;;;;5073484;28;20194;-72
2021/05/19 04:58:44;;;;;;;6.55;5.63;;;12.80;99.90;;;;;;5073223;28;20198;-72
2021/05/19 05:01:11;;;;;;;5.50;5.00;;;12.80;99.90;;;;;;5065925;28;20202;-73
2021/05/19 05:03:37;;;;;;;6.25;5.40;;;12.80;99.90;;;;;;5051498;28;20209;-72
2021/05/19 05:06:04;;;;;;;6.72;5.45;;;12.80;99.90;;;;;;5067391;28;20623;-72
2021/05/19 05:08:31;;;;;;;6.93;5.40;;;12.90;99.90;;;;;;5070830;28;20194;-72
2021/05/19 05:10:57;;;;;;;7.80;6.57;;;12.80;99.90;;;;;;5060925;28;20240;-72
2021/05/19 05:13:23;;;;;;;7.80;6.82;;;12.90;99.90;;;;;;5073061;28;20733;-72
2021/05/19 05:15:50;;;;;;;7.18;6.45;;;12.90;99.90;;;;;;5068591;28;20249;-73
2021/05/19 05:18:16;;;;;;;9.35;7.63;;;12.90;99.90;;;;;;5068886;28;20553;-73
2021/05/19 05:20:42;;;;;;;7.47;6.78;;;12.90;99.90;;;;;;5057998;28;20227;-73
2021/05/19 05:23:09;;;;;;;7.40;6.63;;;12.90;99.90;;;;;;5068764;28;20533;-73
2021/05/19 05:25:36;;;;;;;9.80;8.80;;;13.00;99.90;;;;;;5067289;28;20206;-73
2021/05/19 05:28:02;;;;;;;8.93;8.15;;;12.90;99.90;;;;;;5072122;28;20194;-72
2021/05/19 05:30:28;;;;;;;8.70;7.80;;;13.00;99.90;;;;;;5072725;28;20259;-73
2021/05/19 05:32:55;;;;;;;8.88;8.02;;;13.00;99.90;;;;;;5061236;28;20195;-73
2021/05/19 05:35:21;;;;;;;7.75;5.95;;;13.00;99.90;;;;;;5055870;28;20239;-72
2021/05/19 05:37:48;;;;;;;9.93;8.93;;;13.00;99.90;;;;;;5072290;28;20546;-73
2021/05/19 05:40:15;;;;;;;8.27;7.47;;;13.00;99.90;;;;;;5068827;28;20236;-72
2021/05/19 05:42:41;;;;;;;9.73;7.75;;;13.10;99.90;;;;;;5072313;28;20272;-72
2021/05/19 05:45:08;;;;;;;7.95;7.22;;;13.20;99.90;;;;;;5072362;28;20193;-73
2021/05/19 05:47:35;;;;;;;7.72;6.88;;;13.20;99.90;;;;;;5072410;28;20222;-72
2021/05/19 05:50:03;;;;;;;9.00;8.10;;;13.30;99.90;;;;;;5069777;28;20214;-72
2021/05/19 05:52:29;;;;;;;7.90;6.97;;;13.50;99.90;;;;;;5071666;28;20535;-73
2021/05/19 05:54:55;;;;;;;8.05;7.25;;;13.60;99.90;;;;;;5052102;28;20705;-73
2021/05/19 05:57:23;;;;;;;8.25;7.40;;;13.70;99.90;;;;;;5059518;28;20198;-73
2021/05/19 05:59:49;;;;;;;9.77;7.65;;;13.80;99.90;;;;;;5053729;28;20221;-73
2021/05/19 06:02:15;;;;;;;9.02;7.65;;;13.80;99.90;;;;;;5052270;28;20203;-72
2021/05/19 06:04:41;;;;;;;8.88;6.95;;;13.90;99.90;;;;;;5065074;28;20639;-73
2021/05/19 06:07:07;;;;;;;8.30;7.40;;;13.90;99.90;;;;;;5071514;28;20190;-73
2021/05/19 06:09:34;;;;;;;7.95;7.25;;;13.90;99.90;;;;;;5072064;28;20203;-73
2021/05/19 06:12:00;;;;;;;7.32;6.60;;;14.00;99.90;;;;;;5056222;28;20194;-73
2021/05/19 06:14:27;;;;;;;7.47;6.63;;;14.10;99.90;;;;;;5051616;28;20383;-73
2021/05/19 06:16:53;;;;;;;7.97;5.35;;;14.30;99.90;;;;;;5071568;28;20193;-73
2021/05/19 06:19:19;;;;;;;6.65;5.95;;;14.40;99.90;;;;;;5070571;28;20205;-73
2021/05/19 06:21:45;;;;;;;6.75;6.00;;;14.50;99.90;;;;;;5071432;28;20613;-73
2021/05/19 06:24:12;;;;;;;6.72;5.97;;;14.50;99.90;;;;;;5071136;28;20209;-73
2021/05/19 06:26:38;;;;;;;6.00;5.40;;;14.60;99.90;;;;;;5060970;28;20644;-73
2021/05/19 06:29:04;;;;;;;6.13;5.35;;;14.60;99.90;;;;;;5069772;28;20194;-73
2021/05/19 06:31:31;;;;;;;9.45;6.32;;;14.60;99.90;;;;;;5071397;28;20594;-73
2021/05/19 06:33:58;;;;;;;11.18;7.38;;;14.60;99.90;;;;;;5071248;28;20217;-73
2021/05/19 06:36:24;;;;;;;6.13;5.57;;;14.60;99.90;;;;;;5065864;28;20294;-73
2021/05/19 06:38:50;;;;;;;8.05;5.90;;;14.50;99.90;;;;;;5051163;28;20203;-73
2021/05/19 06:41:16;;;;;;;8.20;6.75;;;14.50;99.90;;;;;;5051331;28;20679;-73
2021/05/19 06:43:42;;;;;;;6.88;5.57;;;14.40;99.90;;;;;;5060368;28;20198;-73
2021/05/19 06:46:08;;;;;;;6.28;5.65;;;14.30;99.90;;;;;;5071175;28;20202;-73
2021/05/19 06:48:35;;;;;;;6.03;5.38;;;14.30;99.90;;;;;;5071032;28;20216;-73
2021/05/19 06:51:02;;;;;;;6.07;5.43;;;14.30;99.90;;;;;;5069538;28;20218;-73
2021/05/19 06:53:28;;;;;;;6.65;5.95;;;14.20;99.90;;;;;;5070723;28;20295;-72
2021/05/19 06:55:54;;;;;;;5.20;4.75;;;14.20;99.90;;;;;;5068851;28;20241;-73
2021/05/19 06:58:20;;;;;;;8.80;6.35;;;14.20;99.90;;;;;;5068857;28;20194;-72
2021/05/19 07:00:47;;;;;;;7.07;5.38;;;14.20;99.90;;;;;;5069463;28;20899;-73
2021/05/19 07:03:13;;;;;;;7.72;6.22;;;14.20;99.90;;;;;;5068753;28;20213;-73
2021/05/19 07:05:40;;;;;;;5.88;5.30;;;14.20;99.90;;;;;;5069703;28;20821;-73
2021/05/19 07:08:07;;;;;;;4.85;4.45;;;14.10;99.90;;;;;;5070561;28;20194;-73
2021/05/19 07:10:33;;;;;;;5.50;4.70;;;14.10;99.90;;;;;;5070427;28;20226;-73
2021/05/19 07:12:59;;;;;;;6.25;5.60;;;14.10;99.90;;;;;;5051012;28;20661;-73
2021/05/19 07:15:31;;;;;;;5.45;4.88;;;14.10;99.90;;;;;;5068089;28;20213;-73
2021/05/19 07:17:57;;;;;;;5.95;5.35;;;14.10;99.90;;;;;;5069899;28;20590;-73
2021/05/19 07:20:23;;;;;;;5.35;4.57;;;14.10;99.90;;;;;;5062831;28;20292;-72
2021/05/19 07:22:51;;;;;;;5.70;4.75;;;14.00;99.90;;;;;;5068045;28;20198;-72
2021/05/19 07:25:17;;;;;;;4.80;4.40;;;14.00;99.90;;;;;;5069872;28;20210;-72
2021/05/19 07:27:43;;;;;;;5.00;4.20;;;14.10;99.90;;;;;;5051491;28;20198;-72
2021/05/19 07:30:11;;;;;;;7.05;4.70;;;14.10;99.90;;;;;;5066411;28;20214;-72
2021/05/19 07:32:37;;;;;;;5.72;5.18;;;14.10;99.90;;;;;;5070160;28;20197;-72
2021/05/19 07:35:04;;;;;;;6.00;4.75;;;14.10;99.90;;;;;;5061942;28;20226;-73
2021/05/19 07:37:30;;;;;;;7.15;4.82;;;14.10;99.90;;;;;;5070685;28;20204;-72
2021/05/19 07:39:57;;;;;;;8.10;4.25;;;14.10;99.90;;;;;;5068201;28;20194;-72
2021/05/19 07:42:23;;;;;;;4.60;4.15;;;14.10;99.90;;;;;;5070211;28;20216;-72
2021/05/19 07:44:50;;;;;;;5.72;4.00;;;14.10;99.90;;;;;;5070178;28;20650;-72
2021/05/19 07:47:16;;;;;;;4.03;3.50;;;14.10;99.90;;;;;;5068653;28;20281;-72
2021/05/19 07:49:42;;;;;;;4.60;3.70;;;14.10;99.90;;;;;;5070018;28;20202;-72
2021/05/19 07:52:08;;;;;;;4.80;3.90;;;14.10;99.90;;;;;;5060809;28;20210;-72
2021/05/19 07:54:36;;;;;;;4.60;3.92;;;14.20;99.90;;;;;;5069808;28;20205;-70
2021/05/19 07:57:08;;;;;;;6.20;4.60;;;14.30;99.90;;;;;;5069357;28;20186;-72
2021/05/19 07:59:34;;;;;;;8.35;4.40;;;14.50;99.90;;;;;;5069969;28;20202;-72
2021/05/19 08:02:05;;;;;;;3.40;3.10;;;14.60;99.90;;;;;;5069897;28;20706;-71
2021/05/19 08:04:34;;;;;;;4.07;3.70;;;14.80;99.90;;;;;;5070055;28;20642;-72
2021/05/19 08:07:01;;;;;;;3.47;3.17;;;15.00;99.90;;;;;;5058422;28;20205;-72
2021/05/19 08:09:28;;;;;;;4.47;3.70;;;15.10;99.90;;;;;;5069473;28;20199;-71
2021/05/19 08:11:55;;;;;;;5.20;3.05;;;15.20;99.90;;;;;;5070417;28;20214;-72
2021/05/19 08:14:22;;;;;;;4.18;3.50;;;15.30;99.90;;;;;;5070779;28;20202;-70
2021/05/19 08:16:48;;;;;;;3.25;2.90;;;15.20;99.90;;;;;;5061616;28;20198;-71
2021/05/19 08:19:14;;;;;;;4.47;3.50;;;15.10;99.90;;;;;;5070053;28;20205;-71
2021/05/19 08:21:41;;;;;;;3.83;3.05;;;14.90;99.90;;;;;;5069694;28;20230;-71
2021/05/19 08:24:08;;;;;;;3.45;2.95;;;14.80;99.90;;;;;;5068961;28;20198;-72
2021/05/19 08:26:34;;;;;;;4.60;3.20;;;14.80;99.90;;;;;;5069662;28;20194;-72
2021/05/19 08:29:01;;;;;;;5.00;3.25;;;14.90;99.90;;;;;;5069736;28;20205;-73
2021/05/19 08:31:28;;;;;;;5.72;3.03;;;14.90;99.90;;;;;;5063746;28;20287;-73
2021/05/19 08:33:56;;;;;;;3.38;2.35;;;15.00;99.90;;;;;;5070167;28;20202;-73
2021/05/19 08:36:23;;;;;;;4.22;2.75;;;15.10;99.90;;;;;;5057672;28;20222;-73
2021/05/19 08:38:49;;;;;;;3.70;2.70;;;15.20;99.90;;;;;;5055700;28;20202;-73
2021/05/19 08:41:15;;;;;;;4.30;2.80;;;15.20;99.90;;;;;;5064712;28;20269;-73
2021/05/19 08:43:41;;;;;;;6.95;2.60;;;15.20;99.90;;;;;;5082280;28;20637;-73
2021/05/19 08:46:08;;;;;;;3.28;2.22;;;15.30;99.90;;;;;;5073126;28;20194;-73
2021/05/19 08:48:36;;;;;;;3.85;2.80;;;15.30;99.90;;;;;;5059778;28;20282;-73
2021/05/19 08:51:03;;;;;;;4.30;2.65;;;15.40;99.90;;;;;;5080403;28;20214;-73
2021/05/19 08:53:31;;;;;;;4.55;2.50;;;15.40;99.90;;;;;;5078127;28;20236;-73
2021/05/19 08:55:57;;;;;;;3.80;2.65;;;15.50;99.90;;;;;;5072854;28;20201;-73
2021/05/19 08:58:24;;;;;;;5.60;2.42;;;15.60;99.90;;;;;;5072917;28;20194;-73
2021/05/19 09:00:50;;;;;;;2.05;1.65;;;15.70;99.90;;;;;;5060495;28;20198;-73
2021/05/19 09:03:18;;;;;;;2.58;1.90;;;15.80;99.90;;;;;;5069181;28;20252;-73
2021/05/19 09:05:46;;;;;;;2.75;2.00;;;15.90;99.90;;;;;;5063922;28;20858;-73
2021/05/19 09:08:14;;;;;;;6.78;2.25;;;16.00;99.90;;;;;;5072844;28;20285;-73
2021/05/19 09:10:42;;;;;;;2.67;1.98;;;16.10;99.90;;;;;;5070988;28;20732;-73
2021/05/19 09:13:28;;;;;;;7.28;1.98;;;16.10;99.90;;;;;;5072304;28;20228;-73
2021/05/19 09:15:54;;;;;;;2.10;1.90;;;16.10;99.90;;;;;;5060319;28;20879;-73
2021/05/19 09:18:21;;;;;;;5.88;2.15;;;16.10;99.90;;;;;;5072590;28;20194;-73
2021/05/19 09:20:50;;;;;;;2.85;1.60;;;16.10;99.90;;;;;;5068977;28;20229;-73
2021/05/19 09:23:19;;;;;;;3.53;1.88;;;16.10;99.90;;;;;;5072347;28;20197;-73
2021/05/19 09:26:03;;;;;;;6.70;1.80;;;16.00;99.90;;;;;;5062167;28;20581;-72
2021/05/19 09:28:29;;;;;;;2.75;1.30;;;16.00;99.90;;;;;;5055201;28;20194;-73
2021/05/19 09:30:55;;;;;;;2.13;1.48;;;16.00;99.90;;;;;;5072340;28;20216;-73
2021/05/19 09:33:24;;;;;;;4.15;1.67;;;16.00;99.90;;;;;;5070582;28;20198;-72
2021/05/19 09:36:16;;;;;;;6.35;2.13;;;16.00;99.90;;;;;;5072679;28;20194;-73
2021/05/19 09:38:43;;;;;;;2.65;1.83;;;15.90;99.90;;;;;;5067023;28;20617;-73
2021/05/19 09:41:21;;;;;;;5.00;1.40;;;16.00;99.90;;;;;;5077795;28;20249;-73
2021/05/19 09:43:51;;;;;;;1.85;1.35;;;16.00;99.90;;;;;;5072638;28;20197;-72
2021/05/19 09:46:20;;;;;;;2.08;1.50;;;16.00;99.90;;;;;;5067018;28;20209;-73
2021/05/19 09:48:46;;;;;;;3.75;2.00;;;16.10;99.90;;;;;;5071471;28;20201;-73
2021/05/19 09:51:26;;;;;;;1.75;1.55;;;16.20;99.90;;;;;;5060599;28;20221;-73
2021/05/19 09:53:52;;;;;;;4.70;1.75;;;16.20;99.90;;;;;;5072000;28;20672;-73
2021/05/19 09:56:19;;;;;;;5.80;1.90;;;16.30;99.90;;;;;;5071591;28;20281;-73
2021/05/19 09:58:46;;;;;;;2.63;1.52;;;16.40;99.90;;;;;;5072294;28;20260;-72
2021/05/19 10:01:13;;;;;;;6.28;2.00;;;16.40;99.90;;;;;;5071088;28;20205;-72
2021/05/19 10:03:39;;;;;;;3.03;1.35;;;16.50;99.90;;;;;;5072390;28;20194;-72
2021/05/19 10:06:11;;;;;;;2.53;1.35;;;16.50;99.90;;;;;;5071131;28;20198;-72
2021/05/19 10:08:38;;;;;;;4.80;1.40;;;16.50;99.90;;;;;;5072172;28;20255;-72
2021/05/19 10:11:05;;;;;;;1.77;1.50;;;16.50;99.90;;;;;;5071732;28;20272;-71
2021/05/19 10:13:33;;;;;;;3.58;1.95;;;16.50;99.90;;;;;;5063144;28;20295;-72
2021/05/19 10:16:00;;;;;;;3.58;1.73;;;16.50;99.90;;;;;;5051545;28;20199;-71
2021/05/19 10:18:30;;;;;;;2.60;1.48;;;16.50;99.90;;;;;;5060318;28;20207;-72
2021/05/19 10:20:57;;;;;;;2.65;1.27;;;16.50;99.90;;;;;;5069873;28;20226;-72
2021/05/19 10:23:26;;;;;;;2.05;1.13;;;16.50;99.90;;;;;;5069554;28;20218;-71
2021/05/19 10:26:05;;;;;;;3.38;1.30;;;16.50;99.90;;;;;;5070228;28;20194;-71
2021/05/19 10:28:39;;;;;;;3.72;1.70;;;16.40;99.90;;;;;;5069527;28;20206;-72
2021/05/19 10:31:24;;;;;;;2.50;1.45;;;16.50;99.90;;;;;;5068375;28;20207;-71
2021/05/19 10:33:51;;;;;;;3.22;1.40;;;16.60;99.90;;;;;;5064862;28;20206;-71
2021/05/19 10:36:38;;;;;;;2.03;1.35;;;16.60;99.90;;;;;;5058395;28;20202;-71
2021/05/19 10:39:26;;;;;;;1.55;1.35;;;16.60;99.90;;;;;;5064199;28;20500;-71
2021/05/19 10:41:55;;;;;;;4.03;1.73;;;16.70;99.90;;;;;;5070086;28;20198;-72
2021/05/19 10:44:27;;;;;;;2.53;1.20;;;16.70;99.90;;;;;;5070935;28;20202;-72
2021/05/19 10:47:01;;;;;;;7.30;1.63;;;16.70;99.90;;;;;;5052401;28;20687;-72
2021/05/19 10:50:08;;;;;;;7.55;3.50;;;16.70;99.90;;;;;;5064140;28;20287;-71
2021/05/19 10:58:42;;;;;;;2.20;1.17;;;16.60;99.90;;;;;;5073722;28;20687;-72
2021/05/19 11:01:10;;;;;;;2.53;1.58;;;16.60;99.90;;;;;;5078778;28;20189;-72
2021/05/19 11:03:37;;;;;;;4.78;1.30;;;16.60;99.90;;;;;;5073617;28;20198;-72
2021/05/19 11:06:16;;;;;;;1.70;1.27;;;16.60;99.90;;;;;;5069832;28;20324;-73
2021/05/19 11:08:42;;;;;;;1.70;1.20;;;16.70;99.90;;;;;;5070533;28;20198;-72
2021/05/19 11:11:36;;;;;;;3.65;1.70;;;16.70;99.90;;;;;;5069963;28;20689;-72
2021/05/19 11:14:26;;;;;;;1.50;1.20;;;16.70;99.90;;;;;;5063911;28;20186;-72
2021/05/19 11:17:11;;;;;;;3.25;1.50;;;16.70;99.90;;;;;;5059516;28;20283;-72
2021/05/19 11:19:39;;;;;;;4.50;2.15;;;16.80;99.90;;;;;;5068893;28;20201;-72
2021/05/19 11:22:10;;;;;;;2.95;1.58;;;16.80;99.90;;;;;;5065656;28;20221;-71
2021/05/19 11:24:51;;;;;;;1.90;1.10;;;16.80;99.90;;;;;;5071459;28;20202;-72
2021/05/19 11:27:19;;;;;;;2.85;1.42;;;16.80;99.90;;;;;;5078255;28;20189;-72
2021/05/19 11:29:47;;;;;;;3.00;1.30;;;16.80;99.90;;;;;;5069393;28;20205;-72
2021/05/19 11:32:17;;;;;;;2.45;1.13;;;16.80;99.90;;;;;;5068749;28;20267;-72
2021/05/19 11:34:44;;;;;;;3.55;1.38;;;16.80;99.90;;;;;;5070144;28;20194;-72
2021/05/19 11:37:10;;;;;;;1.80;1.40;;;16.80;99.90;;;;;;5086978;28;20197;-72
2021/05/19 11:39:38;;;;;;;1.75;1.20;;;16.80;99.90;;;;;;5078383;28;20194;-72
2021/05/19 11:42:16;;;;;;;2.88;1.48;;;16.90;99.90;;;;;;5054386;28;20190;-72
2021/05/19 11:44:49;;;;;;;2.75;1.30;;;16.90;99.90;;;;;;5059857;28;20242;-72
2021/05/19 11:47:20;;;;;;;2.72;1.20;;;17.00;99.90;;;;;;5070169;28;20229;-72
2021/05/19 11:49:47;;;;;;;3.08;1.58;;;17.00;99.90;;;;;;5068104;28;20239;-72
2021/05/19 11:52:13;;;;;;;5.63;1.73;;;17.00;99.90;;;;;;5080816;28;20260;-72
2021/05/19 11:54:41;;;;;;;1.52;1.35;;;17.00;99.90;;;;;;5064443;28;20213;-72
2021/05/19 11:57:10;;;;;;;2.10;1.15;;;17.00;99.90;;;;;;5079320;28;20201;-71
2021/05/19 11:59:38;;;;;;;3.05;1.42;;;17.00;99.90;;;;;;5078738;28;20653;-71
2021/05/19 12:02:06;;;;;;;4.97;1.20;;;17.10;99.90;;;;;;5050054;28;20190;-71
2021/05/19 12:04:34;;;;;;;3.08;1.50;;;17.00;99.90;;;;;;5050918;28;20605;-71
2021/05/19 12:07:02;;;;;;;3.45;1.75;;;17.00;99.90;;;;;;5065821;28;20201;-72
2021/05/19 12:09:30;;;;;;;2.72;1.63;;;17.00;99.90;;;;;;5075926;28;20194;-72
2021/05/19 12:12:14;;;;;;;3.08;1.55;;;17.10;99.90;;;;;;5065995;28;20227;-72
2021/05/19 12:14:50;;;;;;;1.95;1.67;;;17.10;99.90;;;;;;5072507;28;20216;-72
2021/05/19 12:17:17;;;;;;;2.88;1.30;;;17.10;99.90;;;;;;5057988;28;20278;-72
2021/05/19 12:19:44;;;;;;;3.67;1.52;;;17.10;99.90;;;;;;5073741;28;20204;-72
2021/05/19 12:22:14;;;;;;;4.30;1.70;;;17.10;99.90;;;;;;5057204;28;20660;-71
2021/05/19 12:24:41;;;;;;;4.97;1.67;;;17.10;99.90;;;;;;5073825;28;20682;-71
2021/05/19 12:27:08;;;;;;;2.65;1.40;;;17.20;99.90;;;;;;5074117;28;20596;-71
2021/05/19 12:29:38;;;;;;;3.22;1.45;;;17.20;99.90;;;;;;5070598;28;20241;-71
2021/05/19 12:32:14;;;;;;;4.85;1.58;;;17.20;99.90;;;;;;5073776;28;20214;-72
2021/05/19 12:34:41;;;;;;;2.03;1.50;;;17.20;99.90;;;;;;5069674;28;20199;-73
2021/05/19 12:37:08;;;;;;;2.28;1.48;;;17.20;99.90;;;;;;5059794;28;20926;-72
2021/05/19 12:39:36;;;;;;;2.05;1.50;;;17.20;99.90;;;;;;5072915;28;20221;-71
2021/05/19 12:42:14;;;;;;;4.78;1.75;;;17.20;99.90;;;;;;5073790;28;20247;-70
2021/05/19 12:44:41;;;;;;;3.10;1.33;;;17.20;99.90;;;;;;5066264;28;20206;-72
2021/05/19 12:47:10;;;;;;;1.88;1.63;;;17.30;99.90;;;;;;5073294;28;20198;-72
2021/05/19 12:49:40;;;;;;;4.72;1.63;;;17.30;99.90;;;;;;5073361;28;20552;-73
2021/05/19 12:52:15;;;;;;;5.43;2.35;;;17.30;99.90;;;;;;5068362;28;20257;-72
2021/05/19 12:54:41;;;;;;;3.15;1.75;;;17.30;99.90;;;;;;5073367;28;20201;-72
2021/05/19 12:57:10;;;;;;;3.15;1.52;;;17.30;99.90;;;;;;5064560;28;20534;-71
2021/05/19 13:00:00;;;;;;;2.40;1.42;;;17.40;99.90;;;;;;5065638;28;20229;-71
2021/05/19 13:02:30;;;;;;;2.30;1.50;;;17.30;99.90;;;;;;5072758;28;20285;-71